Airfield :
LOGIN :

Register | Disclaimer

   EN    FR    IT 

 










Legend :    VFR   Marginal VFR   IFR   Intensive IFR   Very Intensive IFR
Visi :
Ceiling :
>= 8 km
>= 3000ft
5 to 8 km
1000 to 3000 ft
1500m to 5 km
500 to 1000 ft
800 to 1500m
200 to 500 ft
< 800m
< 200 ft
Symbols :   Thunderstorms  Fog  Heavy snow  Heavy precipitations  Wind > 20 kt
SIGMETs :     Misc.  Thunderstorms  Icing  Turbulence  Mountain Waves  Volcanic Ashes






- Airport Elevation : 353 ft
- IATA code : ZAG


LDZA - Zagreb Pleso

CURRENT METAR :
  • 040800Z 25006KT 220V280 9999 SCT010 BKN030 21/19 Q1006 TEMPO TSRA FEW035CB

EXPIRED METARs :
  • 040730Z VRB01KT 9999 BKN010 21/20 Q1005 TEMPO TSRA FEW035CB
  • 040700Z VRB01KT 9999 SCT008 BKN035 20/19 Q1005 NOSIG
  • 040630Z VRB01KT 9999 SCT008 20/19 Q1005 NOSIG
  • 040600Z VRB01KT 9999 FEW006 SCT010 OVC040 19/19 Q1005 NOSIG
  • 040530Z VRB01KT 7000 FEW003 BKN010 19/19 Q1004 BECMG SCT010
  • 040500Z 00000KT 7000 FEW003 BKN010 19/19 Q1004 BECMG FM0500 SCT010

TAF AMD TAF LDZA
Valid from the 04 at 08:00 until the 05 at 06:00 UTC


040732Z 0408/0506 VRB02KT 9999 SCT030 TX25/0412Z TN16/0503Z
TEMPO 0408/0409 BKN010
PROB40
TEMPO 0409/0419 TSRA FEW040CB
PROB30
TEMPO 0411/0415 31018KT 2000 TSGR SCT040CB BKN045
BECMG 0418/0420 03012KT
TEMPO 0419/0506 SHRA SCT040TCU
ATIS : +385 1 6-259-214



MET'MAP, your aeronautical weather chart ! - Copyright ORBIFLY December 2007 - Disclaimer

ORBIFLY MET'MAP TEAM :

Programming & Development : Alexandra Zaïnal
Concept & original design : Baudouin d'Aumeries
Assistance for programming : Marc-Olivier Méhu
Technical & hardware support : Manuel Goepfert

Contact : metmap@orbifly.com




SOURCES & CREDITS :

   NOAA